Time;durP1;ratioP1;P1;durP2;ratioP2;P2;SDS_P1;SDS_P2;PMS_P1;PMS_P2;Temp;Humidity;BMP_temperature;BMP_pressure;BME280_temperature;BME280_humidity;BME280_pressure;Samples;Min_cycle;Max_cycle;Signal;HPM_P1;HPM_P2
2023/11/16 00:00:12;;;;;;;11.48;3.40;;;;;;;;;;695585;28;1219;-67
2023/11/16 00:00:35;;;;;;;8.93;2.88;;;;;;;;;;696254;28;1450;-67
2023/11/16 00:00:56;;;;;;;9.48;3.40;;;;;;;;;;693961;28;1566;-68
2023/11/16 00:01:17;;;;;;;11.27;3.17;;;;;;;;;;694674;28;4208;-68
2023/11/16 00:01:37;;;;;;;10.50;3.25;;;;;;;;;;694727;28;2178;-66
2023/11/16 00:01:58;;;;;;;11.40;2.93;;;;;;;;;;696596;28;892;-67
2023/11/16 00:02:19;;;;;;;11.03;3.13;;;;;;;;;;698694;28;1385;-67
2023/11/16 00:02:41;;;;;;;11.85;3.17;;;;;;;;;;700259;28;1729;-67
2023/11/16 00:03:03;;;;;;;10.02;3.40;;;;;;;;;;700446;28;1230;-67
2023/11/16 00:03:23;;;;;;;10.55;3.00;;;;;;;;;;701124;28;1226;-67
2023/11/16 00:03:44;;;;;;;10.27;3.10;;;;;;;;;;699677;28;1009;-67
2023/11/16 00:04:09;;;;;;;11.55;3.50;;;;;;;;;;697826;28;4308;-66
2023/11/16 00:04:33;;;;;;;11.93;3.17;;;;;;;;;;698586;28;1183;-67
2023/11/16 00:04:54;;;;;;;12.45;3.35;;;;;;;;;;698799;28;1730;-67
2023/11/16 00:05:16;;;;;;;11.60;4.03;;;;;;;;;;697081;28;1341;-67
2023/11/16 00:05:37;;;;;;;14.32;4.40;;;;;;;;;;698237;28;1420;-67
2023/11/16 00:05:57;;;;;;;12.87;3.57;;;;;;;;;;698119;28;1183;-67
2023/11/16 00:06:18;;;;;;;10.18;2.90;;;;;;;;;;698371;28;1500;-67
2023/11/16 00:06:38;;;;;;;10.30;2.50;;;;;;;;;;694144;28;1482;-67
2023/11/16 00:07:00;;;;;;;10.18;2.63;;;;;;;;;;694129;28;4561;-67
2023/11/16 00:07:23;;;;;;;10.55;2.90;;;;;;;;;;696211;28;927;-67
2023/11/16 00:07:48;;;;;;;10.52;2.67;;;;;;;;;;698633;28;1812;-67
2023/11/16 00:08:10;;;;;;;10.50;3.10;;;;;;;;;;697241;28;1266;-67
2023/11/16 00:08:31;;;;;;;12.52;3.90;;;;;;;;;;698179;28;1480;-67
2023/11/16 00:08:53;;;;;;;10.35;2.92;;;;;;;;;;699561;28;1718;-67
2023/11/16 00:09:15;;;;;;;8.80;2.70;;;;;;;;;;699970;28;1286;-67
2023/11/16 00:09:35;;;;;;;9.30;2.95;;;;;;;;;;699396;28;1269;-67
2023/11/16 00:09:55;;;;;;;9.93;2.90;;;;;;;;;;697256;28;1779;-67
2023/11/16 00:10:16;;;;;;;8.82;2.85;;;;;;;;;;699153;28;4263;-66
2023/11/16 00:10:36;;;;;;;10.63;3.00;;;;;;;;;;700169;28;1281;-67
2023/11/16 00:10:59;;;;;;;9.25;2.75;;;;;;;;;;699680;28;1692;-68
2023/11/16 00:11:19;;;;;;;10.48;3.00;;;;;;;;;;700003;28;1516;-67
2023/11/16 00:11:41;;;;;;;12.50;3.30;;;;;;;;;;698942;28;2831;-67
2023/11/16 00:12:02;;;;;;;13.02;3.85;;;;;;;;;;703190;28;1351;-68
2023/11/16 00:12:23;;;;;;;12.50;4.00;;;;;;;;;;703448;28;1223;-67
2023/11/16 00:12:43;;;;;;;11.60;3.83;;;;;;;;;;702567;28;1449;-68
2023/11/16 00:13:06;;;;;;;11.60;3.70;;;;;;;;;;699690;28;4324;-67
2023/11/16 00:13:27;;;;;;;9.52;3.00;;;;;;;;;;699472;28;1358;-66
2023/11/16 00:13:47;;;;;;;11.90;2.93;;;;;;;;;;699283;28;1474;-67
2023/11/16 00:14:08;;;;;;;9.70;2.70;;;;;;;;;;700687;28;1404;-67
2023/11/16 00:14:28;;;;;;;10.30;2.78;;;;;;;;;;701086;28;1111;-68
2023/11/16 00:14:49;;;;;;;11.67;3.67;;;;;;;;;;699659;28;1590;-67
2023/11/16 00:15:09;;;;;;;11.98;3.55;;;;;;;;;;703740;28;886;-67
2023/11/16 00:15:30;;;;;;;16.13;5.10;;;;;;;;;;703867;28;1913;-67
2023/11/16 00:15:52;;;;;;;13.35;3.85;;;;;;;;;;700843;28;1066;-67
2023/11/16 00:16:15;;;;;;;10.90;3.60;;;;;;;;;;702411;28;4298;-68
2023/11/16 00:16:37;;;;;;;15.07;4.35;;;;;;;;;;699610;28;2620;-68
2023/11/16 00:16:58;;;;;;;18.40;5.38;;;;;;;;;;699740;28;2171;-67
2023/11/16 00:17:18;;;;;;;15.18;4.63;;;;;;;;;;700504;28;1258;-67
2023/11/16 00:17:39;;;;;;;12.77;3.85;;;;;;;;;;698925;28;2274;-68
2023/11/16 00:18:04;;;;;;;13.87;4.23;;;;;;;;;;697856;28;1455;-67
2023/11/16 00:18:24;;;;;;;14.25;4.03;;;;;;;;;;699462;28;1305;-67
2023/11/16 00:18:45;;;;;;;12.93;3.83;;;;;;;;;;700333;28;2287;-65
2023/11/16 00:19:06;;;;;;;10.45;3.47;;;;;;;;;;697012;28;4322;-67
2023/11/16 00:19:27;;;;;;;10.37;3.23;;;;;;;;;;695884;28;1270;-68
2023/11/16 00:19:47;;;;;;;9.55;2.97;;;;;;;;;;693955;28;2349;-67
2023/11/16 00:20:09;;;;;;;9.68;2.90;;;;;;;;;;695614;28;1203;-67
2023/11/16 00:20:29;;;;;;;9.45;2.90;;;;;;;;;;695516;28;1271;-66
2023/11/16 00:20:49;;;;;;;11.23;2.97;;;;;;;;;;694903;28;2024;-67
2023/11/16 00:21:10;;;;;;;12.80;3.57;;;;;;;;;;698258;28;1289;-67
2023/11/16 00:21:30;;;;;;;11.82;3.22;;;;;;;;;;696024;28;1254;-68
2023/11/16 00:21:50;;;;;;;10.93;3.37;;;;;;;;;;696669;28;1810;-67
2023/11/16 00:22:11;;;;;;;11.00;3.30;;;;;;;;;;700193;28;4234;-66
2023/11/16 00:22:32;;;;;;;9.30;2.93;;;;;;;;;;701081;28;1237;-68
2023/11/16 00:22:52;;;;;;;12.68;3.92;;;;;;;;;;696708;28;1758;-67
2023/11/16 00:23:12;;;;;;;9.47;2.80;;;;;;;;;;698230;28;1286;-67
2023/11/16 00:23:33;;;;;;;9.25;2.50;;;;;;;;;;700399;28;3381;-67
2023/11/16 00:23:53;;;;;;;8.97;2.60;;;;;;;;;;698305;28;1851;-67
2023/11/16 00:24:13;;;;;;;9.15;2.83;;;;;;;;;;700615;28;1336;-67
2023/11/16 00:24:34;;;;;;;9.50;2.80;;;;;;;;;;697015;28;1318;-67
2023/11/16 00:24:55;;;;;;;12.55;2.90;;;;;;;;;;699143;28;1766;-67
2023/11/16 00:25:16;;;;;;;14.07;3.00;;;;;;;;;;700276;28;4220;-67
2023/11/16 00:25:37;;;;;;;12.88;3.03;;;;;;;;;;700102;28;1459;-68
2023/11/16 00:26:02;;;;;;;12.07;3.25;;;;;;;;;;699205;28;1770;-68
2023/11/16 00:26:22;;;;;;;8.80;3.03;;;;;;;;;;701736;28;1182;-67
2023/11/16 00:26:50;;;;;;;8.25;2.60;;;;;;;;;;699276;28;2313;-68
2023/11/16 00:27:12;;;;;;;10.02;2.80;;;;;;;;;;700132;28;1235;-67
2023/11/16 00:27:32;;;;;;;8.65;2.50;;;;;;;;;;700214;28;1333;-67
2023/11/16 00:27:53;;;;;;;11.80;2.90;;;;;;;;;;694012;28;1195;-68
2023/11/16 00:28:14;;;;;;;10.73;3.22;;;;;;;;;;695084;28;4243;-67
2023/11/16 00:28:35;;;;;;;11.43;3.78;;;;;;;;;;693764;28;1286;-67
2023/11/16 00:28:57;;;;;;;11.80;2.83;;;;;;;;;;694027;28;1510;-67
2023/11/16 00:29:18;;;;;;;9.93;3.00;;;;;;;;;;689667;28;1437;-66
2023/11/16 00:29:38;;;;;;;9.95;3.03;;;;;;;;;;689763;28;1435;-67
2023/11/16 00:29:59;;;;;;;10.85;2.55;;;;;;;;;;689783;28;1386;-67
2023/11/16 00:30:19;;;;;;;10.30;2.53;;;;;;;;;;692438;28;1489;-67
2023/11/16 00:30:39;;;;;;;10.87;2.93;;;;;;;;;;691849;28;2372;-68
2023/11/16 00:30:59;;;;;;;9.55;2.65;;;;;;;;;;694128;28;4286;-68
2023/11/16 00:31:23;;;;;;;10.30;2.90;;;;;;;;;;700934;28;1625;-67
2023/11/16 00:31:43;;;;;;;12.75;3.50;;;;;;;;;;699116;28;1801;-67
2023/11/16 00:32:04;;;;;;;11.13;3.38;;;;;;;;;;700784;28;1328;-67
2023/11/16 00:32:24;;;;;;;11.13;3.33;;;;;;;;;;703051;28;1253;-67
2023/11/16 00:32:44;;;;;;;10.73;3.33;;;;;;;;;;698366;28;2624;-68
2023/11/16 00:33:05;;;;;;;10.63;3.20;;;;;;;;;;701081;28;1323;-67
2023/11/16 00:33:25;;;;;;;12.23;2.95;;;;;;;;;;701240;28;1467;-67
2023/11/16 00:33:46;;;;;;;11.80;3.05;;;;;;;;;;699672;28;1804;-67
2023/11/16 00:34:06;;;;;;;8.53;2.83;;;;;;;;;;700599;28;4232;-67
2023/11/16 00:34:26;;;;;;;8.13;2.20;;;;;;;;;;699222;28;1348;-67
2023/11/16 00:34:47;;;;;;;9.07;2.50;;;;;;;;;;697006;28;1734;-67
2023/11/16 00:35:07;;;;;;;8.17;2.53;;;;;;;;;;698805;28;1263;-68
2023/11/16 00:35:29;;;;;;;7.75;2.20;;;;;;;;;;697693;28;1942;-67
2023/11/16 00:35:49;;;;;;;9.35;2.33;;;;;;;;;;695085;28;1639;-66
2023/11/16 00:36:11;;;;;;;11.02;2.50;;;;;;;;;;696277;28;1279;-67
2023/11/16 00:36:31;;;;;;;8.95;2.58;;;;;;;;;;695157;28;1349;-67
2023/11/16 00:36:52;;;;;;;11.40;3.35;;;;;;;;;;693984;28;1819;-66
2023/11/16 00:37:12;;;;;;;7.87;2.40;;;;;;;;;;695052;28;4348;-67
2023/11/16 00:37:32;;;;;;;10.20;2.73;;;;;;;;;;695818;28;1254;-67
2023/11/16 00:37:52;;;;;;;9.35;3.22;;;;;;;;;;693803;28;1756;-67
2023/11/16 00:38:15;;;;;;;11.70;2.87;;;;;;;;;;697764;28;1258;-66
2023/11/16 00:38:36;;;;;;;9.80;2.90;;;;;;;;;;701102;28;1277;-66
2023/11/16 00:38:58;;;;;;;9.30;2.92;;;;;;;;;;699934;28;2513;-67
2023/11/16 00:39:19;;;;;;;10.18;3.08;;;;;;;;;;697527;28;1444;-66
2023/11/16 00:39:39;;;;;;;9.43;3.00;;;;;;;;;;695855;28;1501;-67
2023/11/16 00:40:00;;;;;;;9.10;2.83;;;;;;;;;;691528;28;4295;-67
2023/11/16 00:40:22;;;;;;;9.18;3.15;;;;;;;;;;693033;28;1310;-67
2023/11/16 00:40:42;;;;;;;11.40;3.38;;;;;;;;;;688005;28;1788;-67
2023/11/16 00:41:03;;;;;;;11.10;3.25;;;;;;;;;;688602;28;1339;-67
2023/11/16 00:41:26;;;;;;;12.60;3.37;;;;;;;;;;690721;28;1295;-67
2023/11/16 00:41:47;;;;;;;10.20;3.05;;;;;;;;;;693824;28;1287;-67
2023/11/16 00:42:07;;;;;;;12.83;3.27;;;;;;;;;;699592;28;1436;-67
2023/11/16 00:42:31;;;;;;;9.68;3.10;;;;;;;;;;701438;28;989;-67
2023/11/16 00:42:51;;;;;;;8.75;2.53;;;;;;;;;;701607;28;2656;-67
2023/11/16 00:43:11;;;;;;;9.13;2.70;;;;;;;;;;701704;28;4277;-68
2023/11/16 00:43:34;;;;;;;9.48;2.60;;;;;;;;;;697942;28;1426;-67
2023/11/16 00:43:56;;;;;;;8.85;2.47;;;;;;;;;;696775;28;1148;-67
2023/11/16 00:44:19;;;;;;;9.45;2.78;;;;;;;;;;700215;28;2039;-67
2023/11/16 00:44:40;;;;;;;9.55;3.00;;;;;;;;;;696578;28;1380;-68
2023/11/16 00:45:00;;;;;;;11.73;3.13;;;;;;;;;;697277;28;1079;-67
2023/11/16 00:45:21;;;;;;;14.50;3.10;;;;;;;;;;690984;28;1227;-68
2023/11/16 00:45:41;;;;;;;11.73;3.07;;;;;;;;;;690757;28;1806;-68
2023/11/16 00:46:03;;;;;;;9.90;3.10;;;;;;;;;;692145;28;4334;-67
2023/11/16 00:46:25;;;;;;;8.23;2.90;;;;;;;;;;695102;28;1275;-67
2023/11/16 00:46:48;;;;;;;10.13;2.92;;;;;;;;;;695902;28;1687;-67
2023/11/16 00:47:08;;;;;;;9.02;2.25;;;;;;;;;;699646;28;1297;-67
2023/11/16 00:47:29;;;;;;;8.13;2.60;;;;;;;;;;699662;28;1285;-67
2023/11/16 00:47:50;;;;;;;7.82;2.42;;;;;;;;;;697616;28;2257;-68
2023/11/16 00:48:11;;;;;;;8.50;2.60;;;;;;;;;;695507;28;1460;-66
2023/11/16 00:48:34;;;;;;;10.85;2.95;;;;;;;;;;695148;28;1465;-67
2023/11/16 00:48:55;;;;;;;11.20;3.05;;;;;;;;;;690962;28;2616;-67
2023/11/16 00:49:15;;;;;;;10.33;2.80;;;;;;;;;;691328;28;4436;-67
2023/11/16 00:49:36;;;;;;;11.60;2.70;;;;;;;;;;691648;28;1285;-68
2023/11/16 00:49:56;;;;;;;12.33;3.47;;;;;;;;;;692488;28;1892;-67
2023/11/16 00:50:16;;;;;;;11.57;3.45;;;;;;;;;;697913;28;1442;-67
2023/11/16 00:50:37;;;;;;;9.63;2.57;;;;;;;;;;691051;28;1167;-67
2023/11/16 00:50:57;;;;;;;9.07;2.47;;;;;;;;;;693812;28;2414;-68
2023/11/16 00:51:18;;;;;;;8.50;2.50;;;;;;;;;;697751;28;1439;-67
2023/11/16 00:51:38;;;;;;;8.87;2.67;;;;;;;;;;694314;28;1210;-67
2023/11/16 00:51:59;;;;;;;11.43;2.67;;;;;;;;;;693063;28;4359;-68
2023/11/16 00:52:20;;;;;;;10.50;2.75;;;;;;;;;;695901;28;1511;-67
2023/11/16 00:52:40;;;;;;;10.02;2.78;;;;;;;;;;700764;28;1233;-67
2023/11/16 00:53:01;;;;;;;11.20;3.40;;;;;;;;;;699486;28;2104;-67
2023/11/16 00:53:21;;;;;;;8.82;3.05;;;;;;;;;;698569;28;1211;-67
2023/11/16 00:53:44;;;;;;;9.90;2.90;;;;;;;;;;700209;28;1135;-68
2023/11/16 00:54:05;;;;;;;10.52;3.40;;;;;;;;;;701016;28;1228;-67
2023/11/16 00:54:25;;;;;;;10.80;3.43;;;;;;;;;;701320;28;1293;-67
2023/11/16 00:54:48;;;;;;;12.40;3.60;;;;;;;;;;699520;28;1587;-67
2023/11/16 00:55:09;;;;;;;11.35;3.33;;;;;;;;;;701055;28;4418;-67
2023/11/16 00:55:31;;;;;;;8.75;2.47;;;;;;;;;;702827;28;1980;-68
2023/11/16 00:55:52;;;;;;;10.35;2.83;;;;;;;;;;697624;28;1467;-67
2023/11/16 00:56:13;;;;;;;11.23;4.10;;;;;;;;;;700344;28;1226;-68
2023/11/16 00:56:34;;;;;;;14.18;3.97;;;;;;;;;;700197;28;1498;-67
2023/11/16 00:56:54;;;;;;;13.57;3.90;;;;;;;;;;696427;28;1877;-68
2023/11/16 00:57:15;;;;;;;12.17;3.73;;;;;;;;;;696825;28;1440;-68
2023/11/16 00:57:35;;;;;;;12.43;3.38;;;;;;;;;;695483;28;1318;-67
2023/11/16 00:57:56;;;;;;;10.00;2.97;;;;;;;;;;693397;28;1581;-68
2023/11/16 00:58:16;;;;;;;10.23;2.83;;;;;;;;;;694635;28;4467;-68
2023/11/16 00:58:38;;;;;;;12.60;3.17;;;;;;;;;;695984;28;1333;-67
2023/11/16 00:58:58;;;;;;;10.32;3.35;;;;;;;;;;697195;28;1872;-67
2023/11/16 00:59:22;;;;;;;11.75;3.33;;;;;;;;;;696733;28;1341;-68
2023/11/16 00:59:42;;;;;;;10.98;3.28;;;;;;;;;;697044;28;2555;-68
2023/11/16 01:00:04;;;;;;;8.57;3.03;;;;;;;;;;695749;28;1198;-68
2023/11/16 01:00:28;;;;;;;10.80;2.90;;;;;;;;;;694684;28;1614;-67
2023/11/16 01:00:51;;;;;;;10.23;2.93;;;;;;;;;;693172;28;1831;-67
2023/11/16 01:01:15;;;;;;;9.50;2.85;;;;;;;;;;694781;28;4254;-67
2023/11/16 01:01:37;;;;;;;9.07;2.58;;;;;;;;;;695298;28;1350;-67
2023/11/16 01:01:59;;;;;;;10.25;3.17;;;;;;;;;;695013;28;1943;-67
2023/11/16 01:02:21;;;;;;;11.32;3.17;;;;;;;;;;698238;28;1478;-67
2023/11/16 01:02:42;;;;;;;10.10;3.10;;;;;;;;;;701386;28;822;-67
2023/11/16 01:03:06;;;;;;;8.82;2.78;;;;;;;;;;696217;28;891;-68
2023/11/16 01:03:26;;;;;;;10.80;3.40;;;;;;;;;;697516;28;932;-67
2023/11/16 01:03:49;;;;;;;8.82;2.78;;;;;;;;;;696225;28;1795;-67
2023/11/16 01:04:11;;;;;;;7.90;2.53;;;;;;;;;;696258;28;4410;-68
2023/11/16 01:04:33;;;;;;;12.02;3.05;;;;;;;;;;694672;28;1993;-67
2023/11/16 01:04:54;;;;;;;13.05;3.38;;;;;;;;;;694475;28;1698;-68
2023/11/16 01:05:17;;;;;;;10.70;3.23;;;;;;;;;;694039;28;1270;-67
2023/11/16 01:05:38;;;;;;;9.07;2.92;;;;;;;;;;695787;28;2146;-68
2023/11/16 01:05:58;;;;;;;8.27;2.78;;;;;;;;;;696298;28;2094;-68
2023/11/16 01:06:19;;;;;;;10.90;3.53;;;;;;;;;;697091;28;931;-67
2023/11/16 01:06:39;;;;;;;12.50;3.40;;;;;;;;;;701325;28;1251;-67
2023/11/16 01:06:59;;;;;;;10.83;3.20;;;;;;;;;;696696;28;4271;-68
2023/11/16 01:07:20;;;;;;;10.70;3.13;;;;;;;;;;698509;28;1253;-67
2023/11/16 01:07:40;;;;;;;11.57;3.47;;;;;;;;;;699132;28;1058;-67
2023/11/16 01:08:00;;;;;;;9.90;2.93;;;;;;;;;;698769;28;2427;-67
2023/11/16 01:08:22;;;;;;;8.27;2.95;;;;;;;;;;701179;28;1215;-68
2023/11/16 01:08:43;;;;;;;8.93;3.07;;;;;;;;;;701816;28;923;-67
2023/11/16 01:09:06;;;;;;;10.43;3.03;;;;;;;;;;702623;28;764;-67
2023/11/16 01:09:31;;;;;;;8.55;2.88;;;;;;;;;;702908;28;1160;-67
2023/11/16 01:09:52;;;;;;;11.52;2.80;;;;;;;;;;698062;28;975;-68
2023/11/16 01:10:17;;;;;;;9.47;2.80;;;;;;;;;;701074;28;4310;-67
2023/11/16 01:10:38;;;;;;;10.52;3.10;;;;;;;;;;700959;28;1041;-68
2023/11/16 01:10:58;;;;;;;9.97;2.87;;;;;;;;;;697139;28;1185;-67
2023/11/16 01:11:27;;;;;;;9.85;3.25;;;;;;;;;;698644;28;916;-68
2023/11/16 01:11:47;;;;;;;11.00;3.30;;;;;;;;;;697993;28;1049;-67
2023/11/16 01:12:14;;;;;;;11.03;3.30;;;;;;;;;;698312;28;1096;-67
2023/11/16 01:12:35;;;;;;;11.10;3.10;;;;;;;;;;697748;28;1205;-67
2023/11/16 01:12:56;;;;;;;9.70;2.95;;;;;;;;;;698534;28;2791;-67
2023/11/16 01:13:23;;;;;;;7.45;2.80;;;;;;;;;;700655;28;4294;-67
2023/11/16 01:13:44;;;;;;;9.30;3.00;;;;;;;;;;699573;28;1055;-67
2023/11/16 01:14:04;;;;;;;8.65;2.88;;;;;;;;;;700885;28;1213;-67
2023/11/16 01:14:25;;;;;;;10.93;3.17;;;;;;;;;;701422;28;1385;-67
2023/11/16 01:14:49;;;;;;;10.40;3.17;;;;;;;;;;693926;28;1333;-67
2023/11/16 01:15:10;;;;;;;12.32;3.67;;;;;;;;;;695901;28;971;-68
2023/11/16 01:15:32;;;;;;;10.05;3.05;;;;;;;;;;695976;28;1983;-67
2023/11/16 01:15:52;;;;;;;8.73;2.85;;;;;;;;;;691145;28;1335;-68
2023/11/16 01:16:14;;;;;;;9.48;3.08;;;;;;;;;;693987;28;4474;-67
2023/11/16 01:16:44;;;;;;;9.90;2.88;;;;;;;;;;694655;28;829;-67
2023/11/16 01:17:07;;;;;;;11.68;2.65;;;;;;;;;;697326;28;1179;-67
2023/11/16 01:17:32;;;;;;;10.57;2.85;;;;;;;;;;697473;28;1392;-67
2023/11/16 01:17:53;;;;;;;8.52;2.78;;;;;;;;;;694246;28;1302;-68
2023/11/16 01:18:15;;;;;;;9.55;2.50;;;;;;;;;;692609;28;900;-66
2023/11/16 01:18:38;;;;;;;9.88;2.70;;;;;;;;;;696077;28;912;-67
2023/11/16 01:19:00;;;;;;;8.88;2.80;;;;;;;;;;694185;28;1122;-67
2023/11/16 01:19:25;;;;;;;9.43;2.60;;;;;;;;;;695373;28;4752;-66
2023/11/16 01:19:46;;;;;;;8.10;2.28;;;;;;;;;;692850;28;3685;-66
2023/11/16 01:20:18;;;;;;;8.57;2.40;;;;;;;;;;694275;28;1207;-67
2023/11/16 01:20:38;;;;;;;10.80;2.85;;;;;;;;;;695368;28;1660;-67
2023/11/16 01:21:00;;;;;;;12.85;3.33;;;;;;;;;;697023;28;2436;-67
2023/11/16 01:21:21;;;;;;;10.30;2.92;;;;;;;;;;698626;28;916;-67
2023/11/16 01:21:44;;;;;;;11.02;3.28;;;;;;;;;;698492;28;860;-67
2023/11/16 01:22:04;;;;;;;9.40;2.78;;;;;;;;;;698757;28;5229;-67
2023/11/16 01:22:25;;;;;;;8.50;2.83;;;;;;;;;;698909;28;1607;-65
2023/11/16 01:23:01;;;;;;;9.73;2.60;;;;;;;;;;697321;28;2036;-66
2023/11/16 01:23:21;;;;;;;10.00;2.50;;;;;;;;;;695405;28;1221;-66
2023/11/16 01:23:43;;;;;;;9.52;2.53;;;;;;;;;;696185;28;1238;-67
2023/11/16 01:24:04;;;;;;;10.20;2.50;;;;;;;;;;694248;28;1684;-67
2023/11/16 01:24:24;;;;;;;8.57;2.42;;;;;;;;;;697726;28;1335;-67
2023/11/16 01:24:45;;;;;;;9.63;2.53;;;;;;;;;;697263;28;1617;-68
2023/11/16 01:25:15;;;;;;;10.13;2.58;;;;;;;;;;694781;28;4254;-66
2023/11/16 01:25:38;;;;;;;13.27;3.00;;;;;;;;;;697418;28;1236;-67
2023/11/16 01:25:58;;;;;;;11.05;2.70;;;;;;;;;;695445;28;1728;-67
2023/11/16 01:26:21;;;;;;;7.83;2.47;;;;;;;;;;696092;28;1212;-67
2023/11/16 01:26:41;;;;;;;9.43;2.60;;;;;;;;;;693554;28;1351;-67
2023/11/16 01:27:15;;;;;;;8.07;2.63;;;;;;;;;;693838;28;1351;-67
2023/11/16 01:27:35;;;;;;;10.35;2.65;;;;;;;;;;699257;28;1251;-67
2023/11/16 01:27:58;;;;;;;10.10;2.90;;;;;;;;;;696892;28;1420;-66
2023/11/16 01:28:20;;;;;;;9.05;3.67;;;;;;;;;;695222;28;6121;-68
2023/11/16 01:28:45;;;;;;;10.32;3.83;;;;;;;;;;694948;28;1227;-67
2023/11/16 01:29:09;;;;;;;11.35;3.58;;;;;;;;;;695589;28;770;-67
2023/11/16 01:29:30;;;;;;;9.30;2.55;;;;;;;;;;691177;28;1541;-67
2023/11/16 01:29:50;;;;;;;8.20;2.47;;;;;;;;;;690749;28;1778;-67
2023/11/16 01:30:12;;;;;;;9.40;2.70;;;;;;;;;;693607;28;936;-67
2023/11/16 01:30:32;;;;;;;9.98;2.55;;;;;;;;;;695440;28;1043;-68
2023/11/16 01:30:52;;;;;;;9.20;2.70;;;;;;;;;;698012;28;2342;-67
2023/11/16 01:31:13;;;;;;;11.37;3.43;;;;;;;;;;700921;28;4251;-67
2023/11/16 01:31:34;;;;;;;9.65;2.88;;;;;;;;;;700295;28;1331;-67
2023/11/16 01:31:55;;;;;;;8.52;2.47;;;;;;;;;;696352;28;1751;-67
2023/11/16 01:32:17;;;;;;;8.85;2.75;;;;;;;;;;698572;28;971;-67
2023/11/16 01:32:37;;;;;;;9.35;2.97;;;;;;;;;;697897;28;1317;-67
2023/11/16 01:32:58;;;;;;;10.73;3.13;;;;;;;;;;697583;28;1159;-67
2023/11/16 01:33:19;;;;;;;11.32;2.80;;;;;;;;;;694226;28;1303;-67
2023/11/16 01:33:39;;;;;;;11.75;2.90;;;;;;;;;;695965;28;1257;-67
2023/11/16 01:33:59;;;;;;;9.37;2.80;;;;;;;;;;693631;28;4283;-66
2023/11/16 01:34:20;;;;;;;9.77;2.70;;;;;;;;;;694978;28;1019;-68
2023/11/16 01:34:41;;;;;;;8.95;2.50;;;;;;;;;;692354;28;1180;-67
2023/11/16 01:35:04;;;;;;;8.77;2.80;;;;;;;;;;692083;28;1458;-66
2023/11/16 01:35:25;;;;;;;10.30;2.78;;;;;;;;;;696146;28;1992;-67
2023/11/16 01:35:47;;;;;;;9.27;2.70;;;;;;;;;;696095;28;1858;-68
2023/11/16 01:36:08;;;;;;;10.43;2.80;;;;;;;;;;700711;28;1050;-67
2023/11/16 01:36:28;;;;;;;8.18;2.70;;;;;;;;;;699672;28;1332;-67
2023/11/16 01:36:51;;;;;;;9.53;3.20;;;;;;;;;;700218;28;2011;-67
2023/11/16 01:37:13;;;;;;;11.57;3.05;;;;;;;;;;701148;28;4474;-67
2023/11/16 01:37:34;;;;;;;10.30;2.85;;;;;;;;;;698843;28;1301;-67
2023/11/16 01:37:56;;;;;;;9.57;2.85;;;;;;;;;;697555;28;1754;-67
2023/11/16 01:38:16;;;;;;;8.95;2.90;;;;;;;;;;700461;28;1724;-67
2023/11/16 01:38:39;;;;;;;9.00;2.60;;;;;;;;;;698808;28;1236;-67
2023/11/16 01:38:59;;;;;;;11.80;2.85;;;;;;;;;;698859;28;1672;-66
2023/11/16 01:39:21;;;;;;;9.87;2.80;;;;;;;;;;699014;28;1276;-67
2023/11/16 01:39:41;;;;;;;9.65;2.75;;;;;;;;;;701144;28;1002;-67
2023/11/16 01:40:01;;;;;;;10.53;2.80;;;;;;;;;;699266;28;4425;-67
2023/11/16 01:40:27;;;;;;;8.43;2.55;;;;;;;;;;701410;28;809;-68
2023/11/16 01:40:47;;;;;;;10.80;2.72;;;;;;;;;;696903;28;1780;-67
2023/11/16 01:41:08;;;;;;;10.77;3.07;;;;;;;;;;698586;28;1213;-67
2023/11/16 01:41:29;;;;;;;10.02;3.28;;;;;;;;;;697984;28;1781;-67
2023/11/16 01:41:49;;;;;;;9.83;3.00;;;;;;;;;;694286;28;2373;-68
2023/11/16 01:42:09;;;;;;;10.63;2.90;;;;;;;;;;694804;28;5356;-67
2023/11/16 01:42:30;;;;;;;13.20;3.07;;;;;;;;;;695743;28;809;-67
2023/11/16 01:42:50;;;;;;;15.13;4.07;;;;;;;;;;696892;28;1488;-66
2023/11/16 01:43:12;;;;;;;15.43;4.17;;;;;;;;;;694477;28;4334;-67
2023/11/16 01:43:33;;;;;;;13.63;3.28;;;;;;;;;;695947;28;1439;-67
2023/11/16 01:43:53;;;;;;;10.57;3.25;;;;;;;;;;693746;28;1198;-67
2023/11/16 01:44:14;;;;;;;11.98;3.40;;;;;;;;;;695743;28;829;-67
2023/11/16 01:44:34;;;;;;;11.23;3.10;;;;;;;;;;692655;28;1011;-67
2023/11/16 01:44:54;;;;;;;11.93;3.25;;;;;;;;;;693689;28;1753;-67
2023/11/16 01:45:27;;;;;;;11.83;3.13;;;;;;;;;;693198;28;979;-67
2023/11/16 01:45:48;;;;;;;9.45;2.78;;;;;;;;;;692751;28;1781;-67
2023/11/16 01:46:09;;;;;;;8.48;2.47;;;;;;;;;;695789;28;4241;-68
2023/11/16 01:46:30;;;;;;;11.10;2.60;;;;;;;;;;693539;28;1367;-66
2023/11/16 01:46:51;;;;;;;12.05;2.55;;;;;;;;;;694474;28;1916;-66
2023/11/16 01:47:13;;;;;;;9.90;2.60;;;;;;;;;;697268;28;815;-67
2023/11/16 01:47:35;;;;;;;11.52;2.97;;;;;;;;;;698491;28;1978;-67
2023/11/16 01:48:00;;;;;;;10.20;2.60;;;;;;;;;;695410;28;1746;-67
2023/11/16 01:48:23;;;;;;;10.52;2.90;;;;;;;;;;698368;28;1253;-67
2023/11/16 01:48:44;;;;;;;10.60;3.13;;;;;;;;;;697136;28;951;-67
2023/11/16 01:49:05;;;;;;;11.60;2.83;;;;;;;;;;695727;28;4249;-67
2023/11/16 01:49:25;;;;;;;7.43;2.40;;;;;;;;;;697770;28;832;-67
2023/11/16 01:49:46;;;;;;;7.60;2.67;;;;;;;;;;698981;28;1352;-67
2023/11/16 01:50:06;;;;;;;7.60;2.70;;;;;;;;;;699800;28;1724;-67
2023/11/16 01:50:28;;;;;;;7.68;2.58;;;;;;;;;;700866;28;1482;-67
2023/11/16 01:50:49;;;;;;;8.93;2.80;;;;;;;;;;699388;28;2417;-67
2023/11/16 01:51:13;;;;;;;9.60;3.05;;;;;;;;;;698587;28;1184;-67
2023/11/16 01:51:35;;;;;;;11.70;3.15;;;;;;;;;;697657;28;1294;-67
2023/11/16 01:51:57;;;;;;;10.68;3.05;;;;;;;;;;699030;28;1498;-67
2023/11/16 01:52:18;;;;;;;11.43;3.22;;;;;;;;;;698688;28;4337;-67
2023/11/16 01:52:38;;;;;;;7.90;2.65;;;;;;;;;;700437;28;891;-67
2023/11/16 01:53:06;;;;;;;9.40;2.73;;;;;;;;;;699779;28;1794;-67
2023/11/16 01:53:27;;;;;;;10.07;3.03;;;;;;;;;;699759;28;2153;-67
2023/11/16 01:53:52;;;;;;;9.88;2.58;;;;;;;;;;696673;28;1254;-68
2023/11/16 01:54:13;;;;;;;10.50;2.50;;;;;;;;;;698070;28;823;-67
2023/11/16 01:54:35;;;;;;;10.40;2.90;;;;;;;;;;695588;28;1424;-68
2023/11/16 01:54:56;;;;;;;10.30;3.00;;;;;;;;;;694194;28;1608;-67
2023/11/16 01:55:17;;;;;;;10.13;2.93;;;;;;;;;;695559;28;4259;-67
2023/11/16 01:55:40;;;;;;;11.63;3.03;;;;;;;;;;697024;28;1964;-68
2023/11/16 01:56:01;;;;;;;13.25;4.28;;;;;;;;;;698678;28;1757;-67
2023/11/16 01:56:23;;;;;;;16.42;5.10;;;;;;;;;;698476;28;1227;-67
2023/11/16 01:56:46;;;;;;;14.07;4.13;;;;;;;;;;697917;28;1412;-67
2023/11/16 01:57:07;;;;;;;11.93;3.65;;;;;;;;;;694127;28;1534;-67
2023/11/16 01:57:27;;;;;;;10.30;3.57;;;;;;;;;;695625;28;1479;-67
2023/11/16 01:57:47;;;;;;;10.68;3.08;;;;;;;;;;692333;28;1358;-68
2023/11/16 01:58:09;;;;;;;12.73;3.50;;;;;;;;;;691217;28;4248;-67
2023/11/16 01:58:31;;;;;;;11.65;3.53;;;;;;;;;;691138;28;1426;-67
2023/11/16 01:58:52;;;;;;;10.02;3.03;;;;;;;;;;689348;28;2424;-67
2023/11/16 01:59:13;;;;;;;8.63;2.80;;;;;;;;;;692281;28;1283;-68
2023/11/16 01:59:34;;;;;;;8.52;2.85;;;;;;;;;;686868;28;1230;-67
2023/11/16 01:59:54;;;;;;;9.40;3.03;;;;;;;;;;686169;28;1674;-67
2023/11/16 02:00:15;;;;;;;9.27;2.90;;;;;;;;;;690503;28;1244;-66
2023/11/16 02:00:36;;;;;;;9.27;3.03;;;;;;;;;;689872;28;1421;-67
2023/11/16 02:00:57;;;;;;;8.15;3.10;;;;;;;;;;689351;28;1012;-66
2023/11/16 02:01:18;;;;;;;9.60;2.90;;;;;;;;;;691908;28;4209;-67
2023/11/16 02:01:39;;;;;;;8.73;2.90;;;;;;;;;;692138;28;1520;-67
2023/11/16 02:01:59;;;;;;;8.47;2.47;;;;;;;;;;692827;28;2761;-67
2023/11/16 02:02:20;;;;;;;8.13;2.50;;;;;;;;;;695369;28;1319;-66
2023/11/16 02:02:42;;;;;;;8.23;2.77;;;;;;;;;;692769;28;1033;-66
2023/11/16 02:03:03;;;;;;;8.57;2.85;;;;;;;;;;691562;28;1463;-67
2023/11/16 02:03:24;;;;;;;10.55;3.15;;;;;;;;;;693406;28;1361;-67
2023/11/16 02:03:46;;;;;;;10.85;3.13;;;;;;;;;;693522;28;1294;-67
2023/11/16 02:04:07;;;;;;;9.32;2.60;;;;;;;;;;692695;28;4258;-66
2023/11/16 02:04:31;;;;;;;9.00;2.63;;;;;;;;;;699096;28;1021;-67
2023/11/16 02:04:51;;;;;;;9.30;2.75;;;;;;;;;;700686;28;1156;-67
2023/11/16 02:05:12;;;;;;;9.73;2.73;;;;;;;;;;704422;28;769;-67
2023/11/16 02:05:33;;;;;;;12.25;3.40;;;;;;;;;;704036;28;1063;-67
2023/11/16 02:05:54;;;;;;;13.05;3.33;;;;;;;;;;702665;28;2285;-67
2023/11/16 02:06:15;;;;;;;10.05;2.92;;;;;;;;;;704086;28;1664;-69
2023/11/16 02:06:40;;;;;;;10.32;2.60;;;;;;;;;;701816;28;1273;-67
2023/11/16 02:07:01;;;;;;;11.05;2.88;;;;;;;;;;699617;28;4342;-68
2023/11/16 02:07:22;;;;;;;11.88;2.88;;;;;;;;;;701184;28;801;-67
2023/11/16 02:07:42;;;;;;;10.43;2.63;;;;;;;;;;697358;28;1198;-67
2023/11/16 02:08:04;;;;;;;10.77;2.80;;;;;;;;;;695900;28;2422;-67
2023/11/16 02:08:24;;;;;;;11.32;2.90;;;;;;;;;;695403;28;916;-67
2023/11/16 02:08:44;;;;;;;8.93;2.60;;;;;;;;;;695323;28;1484;-67
2023/11/16 02:09:05;;;;;;;9.73;2.50;;;;;;;;;;693480;28;2811;-67
2023/11/16 02:09:25;;;;;;;9.27;2.40;;;;;;;;;;694742;28;1189;-67
2023/11/16 02:09:48;;;;;;;8.97;3.00;;;;;;;;;;696756;28;952;-67
2023/11/16 02:10:09;;;;;;;8.73;2.50;;;;;;;;;;693433;28;4408;-67
2023/11/16 02:10:32;;;;;;;7.87;2.50;;;;;;;;;;695241;28;1119;-67
2023/11/16 02:10:52;;;;;;;8.73;2.60;;;;;;;;;;696340;28;1368;-67
2023/11/16 02:11:12;;;;;;;10.03;2.70;;;;;;;;;;696475;28;893;-67
2023/11/16 02:11:33;;;;;;;9.50;2.80;;;;;;;;;;695851;28;1187;-68
2023/11/16 02:11:54;;;;;;;8.20;2.30;;;;;;;;;;694305;28;1819;-68